Аэропорт: Атырау. Атырау

ICAO: UATG

METAR:
2019-09-21 16:00:00
UATG 211600Z 30007MPS 5000 BR SCT010 BKN033CB 11/10 Q1010 R32/29//60 NOSIG RMK QFE759/1012
METAR:
2019-09-21 11:05:00
TAF UATG 211105Z 2112/2212 32010MPS 3100 -SHRA BR SCT011 BKN020CB TX16/2211Z TN06/2202Z TEMPO 2116/2123 0300 FG VV001 BECMG 2123/2124 26010MPS 3100 BR BECMG 2207/2209 25010G15MPS 9999 NSW